sensor_id;sensor_type;location;lat;lon;timestamp;pressure;altitude;pressure_sealevel;temperature;humidity
77279;BME280;66332;50.436;15.378;2023-10-13T00:00:13;98275.19;;;13.76;100.00
77279;BME280;66332;50.436;15.378;2023-10-13T00:05:29;98278.63;;;13.70;100.00
77279;BME280;66332;50.436;15.378;2023-10-13T00:10:13;98278.81;;;13.69;100.00
77279;BME280;66332;50.436;15.378;2023-10-13T00:14:53;98271.06;;;13.61;100.00
77279;BME280;66332;50.436;15.378;2023-10-13T00:19:36;98270.03;;;13.55;100.00
77279;BME280;66332;50.436;15.378;2023-10-13T00:24:26;98268.59;;;13.52;100.00
77279;BME280;66332;50.436;15.378;2023-10-13T00:29:10;98281.44;;;13.62;100.00
77279;BME280;66332;50.436;15.378;2023-10-13T00:33:53;98272.88;;;13.60;100.00
77279;BME280;66332;50.436;15.378;2023-10-13T00:38:36;98282.03;;;13.58;100.00
77279;BME280;66332;50.436;15.378;2023-10-13T00:43:22;98271.66;;;13.63;100.00
77279;BME280;66332;50.436;15.378;2023-10-13T00:48:03;98267.59;;;13.60;100.00
77279;BME280;66332;50.436;15.378;2023-10-13T00:52:50;98266.38;;;13.56;100.00
77279;BME280;66332;50.436;15.378;2023-10-13T00:57:32;98268.97;;;13.49;100.00
77279;BME280;66332;50.436;15.378;2023-10-13T01:02:13;98264.34;;;13.58;100.00
77279;BME280;66332;50.436;15.378;2023-10-13T01:07:14;98262.50;;;13.59;100.00
77279;BME280;66332;50.436;15.378;2023-10-13T01:12:02;98267.97;;;13.57;100.00
77279;BME280;66332;50.436;15.378;2023-10-13T01:16:44;98267.00;;;13.58;100.00
77279;BME280;66332;50.436;15.378;2023-10-13T01:21:26;98273.13;;;13.72;100.00
77279;BME280;66332;50.436;15.378;2023-10-13T01:26:08;98277.84;;;13.90;100.00
77279;BME280;66332;50.436;15.378;2023-10-13T01:30:49;98289.47;;;13.95;100.00
77279;BME280;66332;50.436;15.378;2023-10-13T01:35:30;98289.06;;;13.92;100.00
77279;BME280;66332;50.436;15.378;2023-10-13T01:40:22;98288.25;;;13.91;100.00
77279;BME280;66332;50.436;15.378;2023-10-13T01:45:09;98287.13;;;13.72;100.00
77279;BME280;66332;50.436;15.378;2023-10-13T01:49:50;98287.13;;;13.72;100.00
77279;BME280;66332;50.436;15.378;2023-10-13T01:54:31;98291.03;;;13.70;100.00
77279;BME280;66332;50.436;15.378;2023-10-13T01:59:13;98296.25;;;13.63;100.00
77279;BME280;66332;50.436;15.378;2023-10-13T02:03:57;98291.16;;;13.55;100.00
77279;BME280;66332;50.436;15.378;2023-10-13T02:08:44;98296.72;;;13.73;100.00
77279;BME280;66332;50.436;15.378;2023-10-13T02:13:28;98292.22;;;13.67;100.00
77279;BME280;66332;50.436;15.378;2023-10-13T02:18:13;98289.44;;;13.89;100.00
77279;BME280;66332;50.436;15.378;2023-10-13T02:22:54;98286.16;;;13.80;100.00
77279;BME280;66332;50.436;15.378;2023-10-13T02:27:35;98291.22;;;13.68;100.00
77279;BME280;66332;50.436;15.378;2023-10-13T02:32:21;98284.84;;;13.56;100.00
77279;BME280;66332;50.436;15.378;2023-10-13T02:37:01;98299.09;;;13.55;100.00
77279;BME280;66332;50.436;15.378;2023-10-13T02:41:43;98309.41;;;13.50;100.00
77279;BME280;66332;50.436;15.378;2023-10-13T02:46:28;98310.66;;;13.54;100.00
77279;BME280;66332;50.436;15.378;2023-10-13T02:51:10;98309.63;;;13.48;100.00
77279;BME280;66332;50.436;15.378;2023-10-13T02:56:02;98312.47;;;13.53;100.00
77279;BME280;66332;50.436;15.378;2023-10-13T03:00:46;98309.66;;;13.55;100.00
77279;BME280;66332;50.436;15.378;2023-10-13T03:05:27;98308.00;;;13.54;100.00
77279;BME280;66332;50.436;15.378;2023-10-13T03:10:10;98316.13;;;13.52;100.00
77279;BME280;66332;50.436;15.378;2023-10-13T03:14:53;98311.25;;;13.49;100.00
77279;BME280;66332;50.436;15.378;2023-10-13T03:19:37;98293.72;;;13.42;100.00
77279;BME280;66332;50.436;15.378;2023-10-13T03:24:18;98290.91;;;13.43;100.00
77279;BME280;66332;50.436;15.378;2023-10-13T03:29:03;98290.91;;;13.43;100.00
77279;BME280;66332;50.436;15.378;2023-10-13T03:33:48;98291.94;;;13.49;100.00
77279;BME280;66332;50.436;15.378;2023-10-13T03:38:37;98296.16;;;13.37;100.00
77279;BME280;66332;50.436;15.378;2023-10-13T03:43:20;98294.56;;;13.42;100.00
77279;BME280;66332;50.436;15.378;2023-10-13T03:48:08;98290.47;;;13.33;100.00
77279;BME280;66332;50.436;15.378;2023-10-13T03:53:07;98303.88;;;13.38;100.00
77279;BME280;66332;50.436;15.378;2023-10-13T03:57:53;98285.97;;;13.34;100.00
77279;BME280;66332;50.436;15.378;2023-10-13T04:02:34;98285.19;;;13.33;100.00
77279;BME280;66332;50.436;15.378;2023-10-13T04:07:17;98290.69;;;13.45;100.00
77279;BME280;66332;50.436;15.378;2023-10-13T04:12:08;98287.44;;;13.43;100.00
77279;BME280;66332;50.436;15.378;2023-10-13T04:17:07;98284.03;;;13.49;100.00
77279;BME280;66332;50.436;15.378;2023-10-13T04:21:54;98285.84;;;13.48;100.00
77279;BME280;66332;50.436;15.378;2023-10-13T04:26:54;98277.34;;;13.60;100.00
77279;BME280;66332;50.436;15.378;2023-10-13T04:31:56;98263.09;;;13.54;100.00
77279;BME280;66332;50.436;15.378;2023-10-13T04:36:41;98267.16;;;13.57;100.00
77279;BME280;66332;50.436;15.378;2023-10-13T04:46:12;98269.25;;;13.68;100.00
77279;BME280;66332;50.436;15.378;2023-10-13T04:51:05;98276.97;;;13.69;100.00
77279;BME280;66332;50.436;15.378;2023-10-13T04:56:14;98271.84;;;13.54;100.00
77279;BME280;66332;50.436;15.378;2023-10-13T05:01:14;98282.44;;;13.54;100.00
77279;BME280;66332;50.436;15.378;2023-10-13T05:06:07;98280.38;;;13.57;100.00
77279;BME280;66332;50.436;15.378;2023-10-13T05:11:06;98281.44;;;13.62;100.00
77279;BME280;66332;50.436;15.378;2023-10-13T05:16:05;98296.09;;;13.71;100.00
77279;BME280;66332;50.436;15.378;2023-10-13T05:21:05;98286.09;;;13.60;100.00
77279;BME280;66332;50.436;15.378;2023-10-13T05:26:04;98300.34;;;13.72;100.00
77279;BME280;66332;50.436;15.378;2023-10-13T05:31:04;98292.63;;;13.64;100.00
77279;BME280;66332;50.436;15.378;2023-10-13T05:36:10;98287.72;;;13.61;100.00
77279;BME280;66332;50.436;15.378;2023-10-13T05:41:09;98288.69;;;13.47;100.00
77279;BME280;66332;50.436;15.378;2023-10-13T05:46:08;98302.16;;;13.59;100.00
77279;BME280;66332;50.436;15.378;2023-10-13T05:51:07;98294.97;;;13.46;100.00
77279;BME280;66332;50.436;15.378;2023-10-13T05:56:06;98307.81;;;13.56;100.00
77279;BME280;66332;50.436;15.378;2023-10-13T06:01:05;98300.59;;;13.77;100.00
77279;BME280;66332;50.436;15.378;2023-10-13T06:06:06;98300.41;;;13.79;100.00
77279;BME280;66332;50.436;15.378;2023-10-13T06:11:06;98304.88;;;13.79;100.00
77279;BME280;66332;50.436;15.378;2023-10-13T06:16:23;98315.06;;;13.82;100.00
77279;BME280;66332;50.436;15.378;2023-10-13T06:21:23;98328.31;;;13.95;100.00
77279;BME280;66332;50.436;15.378;2023-10-13T06:26:22;98329.13;;;14.02;100.00
77279;BME280;66332;50.436;15.378;2023-10-13T06:31:21;98338.13;;;14.14;100.00
77279;BME280;66332;50.436;15.378;2023-10-13T06:36:03;98334.06;;;14.18;100.00
77279;BME280;66332;50.436;15.378;2023-10-13T06:40:47;98341.81;;;14.27;100.00
77279;BME280;66332;50.436;15.378;2023-10-13T06:45:29;98353.47;;;14.45;100.00
77279;BME280;66332;50.436;15.378;2023-10-13T06:50:16;98344.53;;;14.53;100.00
77279;BME280;66332;50.436;15.378;2023-10-13T06:54:57;98357.78;;;14.53;100.00
77279;BME280;66332;50.436;15.378;2023-10-13T06:59:38;98351.88;;;14.64;100.00
77279;BME280;66332;50.436;15.378;2023-10-13T07:04:19;98340.50;;;14.64;100.00
77279;BME280;66332;50.436;15.378;2023-10-13T07:09:02;98351.88;;;14.71;100.00
77279;BME280;66332;50.436;15.378;2023-10-13T07:13:45;98360.44;;;14.93;100.00
77279;BME280;66332;50.436;15.378;2023-10-13T07:18:31;98378.56;;;14.96;100.00
77279;BME280;66332;50.436;15.378;2023-10-13T07:23:16;98373.91;;;14.98;100.00
77279;BME280;66332;50.436;15.378;2023-10-13T07:28:00;98372.88;;;14.99;100.00
77279;BME280;66332;50.436;15.378;2023-10-13T07:32:41;98367.38;;;15.07;100.00
77279;BME280;66332;50.436;15.378;2023-10-13T07:37:30;98360.84;;;15.10;100.00
77279;BME280;66332;50.436;15.378;2023-10-13T07:42:13;98358.59;;;15.20;100.00
77279;BME280;66332;50.436;15.378;2023-10-13T07:47:03;98351.25;;;15.22;100.00
77279;BME280;66332;50.436;15.378;2023-10-13T07:51:48;98348.38;;;15.30;100.00
77279;BME280;66332;50.436;15.378;2023-10-13T07:56:31;98350.22;;;15.43;100.00
77279;BME280;66332;50.436;15.378;2023-10-13T08:01:13;98348.28;;;15.64;100.00
77279;BME280;66332;50.436;15.378;2023-10-13T08:05:58;98349.47;;;15.88;100.00
77279;BME280;66332;50.436;15.378;2023-10-13T08:10:59;98350.28;;;15.88;100.00
77279;BME280;66332;50.436;15.378;2023-10-13T08:15:49;98352.78;;;15.76;100.00
77279;BME280;66332;50.436;15.378;2023-10-13T08:20:39;98355.31;;;16.03;100.00
77279;BME280;66332;50.436;15.378;2023-10-13T08:25:20;98344.97;;;15.95;100.00
77279;BME280;66332;50.436;15.378;2023-10-13T08:30:05;98350.13;;;16.21;100.00
77279;BME280;66332;50.436;15.378;2023-10-13T08:35:06;98350.00;;;16.03;100.00
77279;BME280;66332;50.436;15.378;2023-10-13T08:39:48;98352.41;;;16.18;100.00
77279;BME280;66332;50.436;15.378;2023-10-13T08:44:47;98355.66;;;16.20;100.00
77279;BME280;66332;50.436;15.378;2023-10-13T08:49:32;98353.78;;;16.27;100.00
77279;BME280;66332;50.436;15.378;2023-10-13T08:54:20;98352.72;;;16.35;100.00
77279;BME280;66332;50.436;15.378;2023-10-13T08:59:14;98348.41;;;16.40;100.00
77279;BME280;66332;50.436;15.378;2023-10-13T09:04:09;98349.41;;;16.39;100.00
77279;BME280;66332;50.436;15.378;2023-10-13T09:09:06;98353.00;;;16.51;100.00
77279;BME280;66332;50.436;15.378;2023-10-13T09:13:48;98346.41;;;16.61;100.00
77279;BME280;66332;50.436;15.378;2023-10-13T09:18:28;98344.09;;;16.71;100.00
77279;BME280;66332;50.436;15.378;2023-10-13T09:23:46;98337.88;;;16.59;100.00
77279;BME280;66332;50.436;15.378;2023-10-13T09:28:29;98337.47;;;16.55;100.00
77279;BME280;66332;50.436;15.378;2023-10-13T09:33:11;98345.66;;;16.54;100.00
77279;BME280;66332;50.436;15.378;2023-10-13T09:37:58;98340.19;;;16.73;100.00
77279;BME280;66332;50.436;15.378;2023-10-13T09:42:39;98332.91;;;16.94;100.00
77279;BME280;66332;50.436;15.378;2023-10-13T09:47:22;98333.72;;;16.94;100.00
77279;BME280;66332;50.436;15.378;2023-10-13T09:52:19;98334.69;;;17.00;100.00
77279;BME280;66332;50.436;15.378;2023-10-13T09:57:15;98327.97;;;17.23;100.00
77279;BME280;66332;50.436;15.378;2023-10-13T10:01:59;98331.88;;;17.38;100.00
77279;BME280;66332;50.436;15.378;2023-10-13T10:06:56;98310.47;;;17.33;100.00
77279;BME280;66332;50.436;15.378;2023-10-13T10:17:19;98319.75;;;17.42;100.00
77279;BME280;66332;50.436;15.378;2023-10-13T10:22:03;98307.66;;;17.47;100.00
77279;BME280;66332;50.436;15.378;2023-10-13T10:26:57;98315.06;;;17.45;100.00
77279;BME280;66332;50.436;15.378;2023-10-13T10:31:38;98301.84;;;17.56;100.00
77279;BME280;66332;50.436;15.378;2023-10-13T10:36:31;98296.88;;;17.78;100.00
77279;BME280;66332;50.436;15.378;2023-10-13T10:41:12;98296.34;;;18.72;100.00
77279;BME280;66332;50.436;15.378;2023-10-13T10:45:54;98294.72;;;19.65;93.59
77279;BME280;66332;50.436;15.378;2023-10-13T10:50:40;98285.81;;;19.36;92.66
77279;BME280;66332;50.436;15.378;2023-10-13T10:55:21;98271.13;;;18.98;94.05
77279;BME280;66332;50.436;15.378;2023-10-13T11:00:06;98263.84;;;19.05;94.40
77279;BME280;66332;50.436;15.378;2023-10-13T11:04:58;98247.56;;;19.30;94.71
77279;BME280;66332;50.436;15.378;2023-10-13T11:09:39;98241.06;;;19.38;91.14
77279;BME280;66332;50.436;15.378;2023-10-13T11:14:29;98240.66;;;19.17;93.15
77279;BME280;66332;50.436;15.378;2023-10-13T11:19:10;98248.84;;;19.28;93.51
77279;BME280;66332;50.436;15.378;2023-10-13T11:23:58;98240.28;;;19.25;94.19
77279;BME280;66332;50.436;15.378;2023-10-13T11:28:51;98237.28;;;19.10;94.68
77279;BME280;66332;50.436;15.378;2023-10-13T11:33:32;98240.19;;;19.61;94.37
77279;BME280;66332;50.436;15.378;2023-10-13T11:38:13;98234.69;;;19.79;92.22
77279;BME280;66332;50.436;15.378;2023-10-13T11:42:54;98227.06;;;20.00;90.26
77279;BME280;66332;50.436;15.378;2023-10-13T11:47:39;98217.34;;;19.53;92.91
77279;BME280;66332;50.436;15.378;2023-10-13T11:52:31;98208.06;;;19.56;93.48
77279;BME280;66332;50.436;15.378;2023-10-13T11:57:11;98199.97;;;19.51;94.07
77279;BME280;66332;50.436;15.378;2023-10-13T12:01:52;98197.22;;;19.45;94.92
77279;BME280;66332;50.436;15.378;2023-10-13T12:06:51;98189.44;;;19.44;94.57
77279;BME280;66332;50.436;15.378;2023-10-13T12:11:49;98186.25;;;19.59;93.31
77279;BME280;66332;50.436;15.378;2023-10-13T12:16:35;98180.81;;;19.54;93.17
77279;BME280;66332;50.436;15.378;2023-10-13T12:21:16;98168.50;;;19.36;94.66
77279;BME280;66332;50.436;15.378;2023-10-13T12:26:00;98164.19;;;19.35;94.81
77279;BME280;66332;50.436;15.378;2023-10-13T12:30:41;98167.44;;;19.37;95.48
77279;BME280;66332;50.436;15.378;2023-10-13T12:35:33;98160.25;;;19.37;96.73
77279;BME280;66332;50.436;15.378;2023-10-13T12:40:40;98151.44;;;19.37;97.23
77279;BME280;66332;50.436;15.378;2023-10-13T12:50:39;98144.22;;;19.49;97.04
77279;BME280;66332;50.436;15.378;2023-10-13T12:55:40;98145.25;;;19.48;96.48
77279;BME280;66332;50.436;15.378;2023-10-13T13:00:21;98135.72;;;19.52;95.08
77279;BME280;66332;50.436;15.378;2023-10-13T13:05:04;98129.16;;;19.71;93.98
77279;BME280;66332;50.436;15.378;2023-10-13T13:09:52;98133.00;;;19.64;94.60
77279;BME280;66332;50.436;15.378;2023-10-13T13:14:36;98122.22;;;19.70;95.66
77279;BME280;66332;50.436;15.378;2023-10-13T13:19:20;98118.63;;;19.65;97.42
77279;BME280;66332;50.436;15.378;2023-10-13T13:24:06;98113.09;;;19.55;97.57
77279;BME280;66332;50.436;15.378;2023-10-13T13:28:51;98112.53;;;19.53;98.85
77279;BME280;66332;50.436;15.378;2023-10-13T13:33:32;98103.72;;;19.52;98.93
77279;BME280;66332;50.436;15.378;2023-10-13T13:38:13;98104.94;;;19.61;99.76
77279;BME280;66332;50.436;15.378;2023-10-13T13:43:02;98100.69;;;19.60;99.02
77279;BME280;66332;50.436;15.378;2023-10-13T13:47:43;98075.78;;;19.55;100.00
77279;BME280;66332;50.436;15.378;2023-10-13T13:52:24;98065.13;;;19.71;99.11
77279;BME280;66332;50.436;15.378;2023-10-13T13:57:14;98059.13;;;20.98;92.08
77279;BME280;66332;50.436;15.378;2023-10-13T14:01:54;98049.31;;;22.32;83.79
77279;BME280;66332;50.436;15.378;2023-10-13T14:06:39;98046.38;;;22.34;81.90
77279;BME280;66332;50.436;15.378;2023-10-13T14:11:21;98047.78;;;22.47;80.98
77279;BME280;66332;50.436;15.378;2023-10-13T14:16:20;98035.47;;;22.08;83.21
77279;BME280;66332;50.436;15.378;2023-10-13T14:21:03;98028.66;;;21.85;85.19
77279;BME280;66332;50.436;15.378;2023-10-13T14:25:44;98025.31;;;22.15;81.73
77279;BME280;66332;50.436;15.378;2023-10-13T14:30:26;98019.69;;;22.12;80.99
77279;BME280;66332;50.436;15.378;2023-10-13T14:35:11;98010.78;;;21.59;84.51
77279;BME280;66332;50.436;15.378;2023-10-13T14:39:55;98000.53;;;21.88;83.82
77279;BME280;66332;50.436;15.378;2023-10-13T14:44:37;98005.28;;;21.75;82.87
77279;BME280;66332;50.436;15.378;2023-10-13T14:49:18;98010.63;;;22.13;81.66
77279;BME280;66332;50.436;15.378;2023-10-13T14:53:59;98005.47;;;22.54;79.83
77279;BME280;66332;50.436;15.378;2023-10-13T14:58:40;97990.06;;;22.24;81.14
77279;BME280;66332;50.436;15.378;2023-10-13T15:03:25;97994.91;;;22.27;79.24
77279;BME280;66332;50.436;15.378;2023-10-13T15:08:06;97988.69;;;22.21;80.02
77279;BME280;66332;50.436;15.378;2023-10-13T15:12:47;97985.22;;;21.78;82.70
77279;BME280;66332;50.436;15.378;2023-10-13T15:17:29;97976.94;;;21.42;84.72
77279;BME280;66332;50.436;15.378;2023-10-13T15:22:10;97974.91;;;20.95;87.84
77279;BME280;66332;50.436;15.378;2023-10-13T15:26:57;97976.41;;;20.86;88.04
77279;BME280;66332;50.436;15.378;2023-10-13T15:31:46;97971.41;;;20.68;88.83
77279;BME280;66332;50.436;15.378;2023-10-13T15:36:40;97966.75;;;20.36;92.38
77279;BME280;66332;50.436;15.378;2023-10-13T15:41:28;97959.13;;;19.84;95.56
77279;BME280;66332;50.436;15.378;2023-10-13T15:46:16;97943.97;;;19.67;97.21
77279;BME280;66332;50.436;15.378;2023-10-13T15:50:57;97942.00;;;19.46;98.55
77279;BME280;66332;50.436;15.378;2023-10-13T15:55:38;97934.19;;;19.39;98.31
77279;BME280;66332;50.436;15.378;2023-10-13T16:00:19;97931.00;;;18.92;100.00
77279;BME280;66332;50.436;15.378;2023-10-13T16:05:06;97937.25;;;18.69;100.00
77279;BME280;66332;50.436;15.378;2023-10-13T16:09:48;97935.59;;;18.51;100.00
77279;BME280;66332;50.436;15.378;2023-10-13T16:14:37;97942.47;;;18.35;100.00
77279;BME280;66332;50.436;15.378;2023-10-13T16:19:21;97945.22;;;18.40;100.00
77279;BME280;66332;50.436;15.378;2023-10-13T16:24:02;97946.56;;;18.54;100.00
77279;BME280;66332;50.436;15.378;2023-10-13T16:28:43;97933.56;;;18.29;100.00
77279;BME280;66332;50.436;15.378;2023-10-13T16:33:24;97929.44;;;18.10;100.00
77279;BME280;66332;50.436;15.378;2023-10-13T16:38:04;97935.72;;;17.92;100.00
77279;BME280;66332;50.436;15.378;2023-10-13T16:42:47;97944.75;;;17.79;100.00
77279;BME280;66332;50.436;15.378;2023-10-13T16:47:28;97926.13;;;18.03;100.00
77279;BME280;66332;50.436;15.378;2023-10-13T16:52:09;97928.66;;;17.86;100.00
77279;BME280;66332;50.436;15.378;2023-10-13T16:56:50;97914.00;;;17.72;100.00
77279;BME280;66332;50.436;15.378;2023-10-13T17:01:36;97915.72;;;17.42;100.00
77279;BME280;66332;50.436;15.378;2023-10-13T17:06:17;97925.22;;;17.50;100.00
77279;BME280;66332;50.436;15.378;2023-10-13T17:11:08;97919.31;;;17.48;100.00
77279;BME280;66332;50.436;15.378;2023-10-13T17:15:52;97915.94;;;17.53;100.00
77279;BME280;66332;50.436;15.378;2023-10-13T17:20:36;97907.06;;;17.47;100.00
77279;BME280;66332;50.436;15.378;2023-10-13T17:25:18;97899.09;;;17.47;100.00
77279;BME280;66332;50.436;15.378;2023-10-13T17:29:59;97893.88;;;17.40;100.00
77279;BME280;66332;50.436;15.378;2023-10-13T17:34:40;97889.72;;;17.45;100.00
77279;BME280;66332;50.436;15.378;2023-10-13T17:39:21;97883.00;;;17.18;100.00
77279;BME280;66332;50.436;15.378;2023-10-13T17:44:03;97881.06;;;17.14;100.00
77279;BME280;66332;50.436;15.378;2023-10-13T17:48:44;97887.31;;;17.19;100.00
77279;BME280;66332;50.436;15.378;2023-10-13T17:53:25;97889.72;;;17.21;100.00
77279;BME280;66332;50.436;15.378;2023-10-13T17:58:07;97894.69;;;17.17;100.00
77279;BME280;66332;50.436;15.378;2023-10-13T18:02:49;97891.09;;;17.00;100.00
77279;BME280;66332;50.436;15.378;2023-10-13T18:07:34;97895.06;;;16.79;100.00
77279;BME280;66332;50.436;15.378;2023-10-13T18:12:16;97891.22;;;16.63;100.00
77279;BME280;66332;50.436;15.378;2023-10-13T18:16:57;97881.09;;;16.12;100.00
77279;BME280;66332;50.436;15.378;2023-10-13T18:21:38;97882.34;;;16.09;100.00
77279;BME280;66332;50.436;15.378;2023-10-13T18:26:18;97884.34;;;15.77;100.00
77279;BME280;66332;50.436;15.378;2023-10-13T18:31:03;97871.53;;;15.74;100.00
77279;BME280;66332;50.436;15.378;2023-10-13T18:35:48;97879.63;;;15.79;100.00
77279;BME280;66332;50.436;15.378;2023-10-13T18:40:30;97870.66;;;15.80;100.00
77279;BME280;66332;50.436;15.378;2023-10-13T18:45:18;97870.66;;;15.80;100.00
77279;BME280;66332;50.436;15.378;2023-10-13T18:50:05;97864.38;;;15.56;100.00
77279;BME280;66332;50.436;15.378;2023-10-13T18:54:47;97854.13;;;15.41;100.00
77279;BME280;66332;50.436;15.378;2023-10-13T18:59:29;97856.53;;;15.43;100.00
77279;BME280;66332;50.436;15.378;2023-10-13T19:04:09;97850.31;;;15.37;100.00
77279;BME280;66332;50.436;15.378;2023-10-13T19:08:52;97847.91;;;15.10;100.00
77279;BME280;66332;50.436;15.378;2023-10-13T19:13:33;97842.19;;;14.88;100.00
77279;BME280;66332;50.436;15.378;2023-10-13T19:18:14;97837.50;;;15.09;100.00
77279;BME280;66332;50.436;15.378;2023-10-13T19:22:55;97832.69;;;15.24;100.00
77279;BME280;66332;50.436;15.378;2023-10-13T19:27:36;97828.66;;;15.40;100.00
77279;BME280;66332;50.436;15.378;2023-10-13T19:32:17;97825.19;;;14.96;100.00
77279;BME280;66332;50.436;15.378;2023-10-13T19:36:58;97833.41;;;14.88;100.00
77279;BME280;66332;50.436;15.378;2023-10-13T19:41:44;97829.66;;;14.77;100.00
77279;BME280;66332;50.436;15.378;2023-10-13T19:46:28;97828.28;;;14.93;100.00
77279;BME280;66332;50.436;15.378;2023-10-13T19:51:09;97828.78;;;14.83;100.00
77279;BME280;66332;50.436;15.378;2023-10-13T19:55:53;97822.63;;;14.64;100.00
77279;BME280;66332;50.436;15.378;2023-10-13T20:00:35;97827.13;;;14.57;100.00
77279;BME280;66332;50.436;15.378;2023-10-13T20:05:18;97807.50;;;14.40;100.00
77279;BME280;66332;50.436;15.378;2023-10-13T20:10:00;97801.91;;;14.23;100.00
77279;BME280;66332;50.436;15.378;2023-10-13T20:14:43;97798.13;;;14.12;100.00
77279;BME280;66332;50.436;15.378;2023-10-13T20:19:24;97794.06;;;14.10;100.00
77279;BME280;66332;50.436;15.378;2023-10-13T20:24:05;97798.69;;;14.14;100.00
77279;BME280;66332;50.436;15.378;2023-10-13T20:28:46;97785.88;;;14.18;100.00
77279;BME280;66332;50.436;15.378;2023-10-13T20:33:27;97782.16;;;13.94;100.00
77279;BME280;66332;50.436;15.378;2023-10-13T20:38:09;97773.19;;;13.95;100.00
77279;BME280;66332;50.436;15.378;2023-10-13T20:42:50;97778.09;;;13.91;100.00
77279;BME280;66332;50.436;15.378;2023-10-13T20:47:31;97770.41;;;13.83;100.00
77279;BME280;66332;50.436;15.378;2023-10-13T20:52:13;97763.13;;;13.79;100.00
77279;BME280;66332;50.436;15.378;2023-10-13T20:56:55;97762.09;;;13.80;100.00
77279;BME280;66332;50.436;15.378;2023-10-13T21:01:36;97752.00;;;13.70;100.00
77279;BME280;66332;50.436;15.378;2023-10-13T21:06:17;97745.66;;;13.77;100.00
77279;BME280;66332;50.436;15.378;2023-10-13T21:10:59;97740.44;;;13.96;100.00
77279;BME280;66332;50.436;15.378;2023-10-13T21:15:40;97734.25;;;14.09;100.00
77279;BME280;66332;50.436;15.378;2023-10-13T21:20:21;97727.06;;;14.22;100.00
77279;BME280;66332;50.436;15.378;2023-10-13T21:25:02;97715.78;;;14.34;100.00
77279;BME280;66332;50.436;15.378;2023-10-13T21:29:44;97705.03;;;14.29;100.00
77279;BME280;66332;50.436;15.378;2023-10-13T21:34:25;97702.59;;;14.27;100.00
77279;BME280;66332;50.436;15.378;2023-10-13T21:39:05;97697.69;;;14.06;100.00
77279;BME280;66332;50.436;15.378;2023-10-13T21:43:47;97700.38;;;13.67;100.00
77279;BME280;66332;50.436;15.378;2023-10-13T21:48:28;97701.47;;;13.53;100.00
77279;BME280;66332;50.436;15.378;2023-10-13T21:53:09;97693.47;;;13.28;100.00
77279;BME280;66332;50.436;15.378;2023-10-13T21:57:51;97689.59;;;13.17;100.00
77279;BME280;66332;50.436;15.378;2023-10-13T22:02:36;97688.19;;;13.21;100.00
77279;BME280;66332;50.436;15.378;2023-10-13T22:07:17;97682.69;;;13.29;100.00
77279;BME280;66332;50.436;15.378;2023-10-13T22:12:01;97669.78;;;13.53;100.00
77279;BME280;66332;50.436;15.378;2023-10-13T22:16:42;97658.13;;;13.67;100.00
77279;BME280;66332;50.436;15.378;2023-10-13T22:21:23;97655.94;;;13.89;100.00
77279;BME280;66332;50.436;15.378;2023-10-13T22:26:04;97659.25;;;13.78;100.00
77279;BME280;66332;50.436;15.378;2023-10-13T22:30:45;97653.38;;;13.76;100.00
77279;BME280;66332;50.436;15.378;2023-10-13T22:35:26;97652.31;;;13.52;100.00
77279;BME280;66332;50.436;15.378;2023-10-13T22:40:09;97641.66;;;13.34;100.00
77279;BME280;66332;50.436;15.378;2023-10-13T22:44:52;97633.22;;;13.05;100.00
77279;BME280;66332;50.436;15.378;2023-10-13T22:49:34;97638.09;;;13.01;100.00
77279;BME280;66332;50.436;15.378;2023-10-13T22:54:16;97634.41;;;13.16;100.00
77279;BME280;66332;50.436;15.378;2023-10-13T22:58:57;97628.06;;;13.30;100.00
77279;BME280;66332;50.436;15.378;2023-10-13T23:03:38;97625.91;;;13.07;100.00
77279;BME280;66332;50.436;15.378;2023-10-13T23:08:24;97616.13;;;13.14;100.00
77279;BME280;66332;50.436;15.378;2023-10-13T23:13:18;97613.31;;;13.09;100.00
77279;BME280;66332;50.436;15.378;2023-10-13T23:17:59;97612.75;;;13.00;100.00
77279;BME280;66332;50.436;15.378;2023-10-13T23:22:40;97604.19;;;13.05;100.00
77279;BME280;66332;50.436;15.378;2023-10-13T23:27:21;97596.44;;;13.10;100.00
77279;BME280;66332;50.436;15.378;2023-10-13T23:32:02;97595.97;;;12.75;100.00
77279;BME280;66332;50.436;15.378;2023-10-13T23:36:43;97597.41;;;12.77;100.00
77279;BME280;66332;50.436;15.378;2023-10-13T23:41:25;97586.06;;;12.70;100.00
77279;BME280;66332;50.436;15.378;2023-10-13T23:46:12;97578.38;;;12.62;100.00
77279;BME280;66332;50.436;15.378;2023-10-13T23:50:54;97571.06;;;12.71;100.00
77279;BME280;66332;50.436;15.378;2023-10-13T23:55:37;97572.06;;;12.70;100.00
